Terminal Aerodrome Forecast
Issued by NWS Grand Forks, ND

Home | Current Version | Previous Version | Text Only | Print | Product List | Glossary On
Versions: 1 2 3 4 5 6 7 8 9 10 11 12 13 14 15 16 17 18 19 20
000
FTUS43 KFGF 010500
TAFGFK
TAF
KGFK 010520Z 0106/0206 15022G30KT P6SM BKN025
     FM011100 18014G20KT P6SM BKN025
     FM011600 21017G25KT P6SM BKN025
     FM012000 24015G23KT P6SM BKN050=

USA.gov is the U.S. government's official web portal to all federal, state and local government web resources and services.